Franeker, Netherlands
Current Conditions -  °F | °C
As of 8:25 AM on Saturday 29 Nov 2014 (Local Time) from EHLW Reporting Station
Haze Haze  
Wind Chill: 26°   Ceiling: Unl
Heat Index: 34°   Visibility: 2.6mi
Dew Point: 32°   Wind: 9mph
Humidity: 93%   Direction: 100°E
Pressure: 30"   Gusts: NA
Location:  53.19°N, 5.54°E
Report Text: EHLW 290725Z AUTO 10008KT 4300 BR NCD 01/M00 Q1016 GRN
Loading
Personal Weather Stations






























Interactive Weather Map New forecast layout! Learn more

10-Day Weather Forecast

Advertisements
Track Severe Weather on mobile